Paris, Missouri
Current Conditions -  °F | °C
As of 12:15 PM on Friday 28 Nov 2014 (Local Time) from KHAE Reporting Station
Clear Clear  
Wind Chill: 50°   Ceiling: Unl
Heat Index: 50°   Visibility: 10mi
Dew Point: 32°   Wind: 9mph
Humidity: 50%   Direction: 170°S
Pressure: 29.93"   Gusts: NA
Location:  39.48°N, 92°W
Report Text: KHAE 281815Z AUTO 17008KT 10SM CLR 10/00 A2993 RMK AO2
Loading
Personal Weather Stations






























Interactive Weather Map New forecast layout! Learn more

10-Day Weather Forecast

Advertisements
Track Severe Weather on mobile